Time;durP1;ratioP1;P1;durP2;ratioP2;P2;SDS_P1;SDS_P2;PMS_P1;PMS_P2;Temp;Humidity;BMP_temperature;BMP_pressure;BME280_temperature;BME280_humidity;BME280_pressure;Samples;Min_cycle;Max_cycle;Signal;HPM_P1;HPM_P2
2021/11/02 00:01:46;;;;;;;7.90;3.17;;;;;;;15.97;40.54;99435.63;5033523;28;20072;-74
2021/11/02 00:04:12;;;;;;;4.95;2.30;;;;;;;15.97;40.66;99441.13;5032745;28;20408;-74
2021/11/02 00:06:38;;;;;;;6.20;2.55;;;;;;;16.02;40.45;99451.81;5033384;28;20021;-74
2021/11/02 00:09:07;;;;;;;11.20;3.13;;;;;;;16.09;40.28;99434.53;5033411;28;20079;-74
2021/11/02 00:11:34;;;;;;;6.30;2.75;;;;;;;16.14;40.26;99442.44;5033378;28;20033;-74
2021/11/02 00:14:08;;;;;;;3.92;2.53;;;;;;;16.29;39.94;99440.59;5033408;28;20021;-74
2021/11/02 00:16:35;;;;;;;7.95;2.70;;;;;;;16.24;40.05;99435.44;5016551;28;20395;-74
2021/11/02 00:19:03;;;;;;;6.07;2.40;;;;;;;15.95;40.49;99426.97;5033170;28;20029;-74
2021/11/02 00:21:34;;;;;;;6.35;2.30;;;;;;;16.22;40.00;99440.53;5033166;28;20524;-74
2021/11/02 00:24:14;;;;;;;10.52;2.53;;;;;;;16.28;39.89;99441.78;5033155;28;20033;-75
2021/11/02 00:26:40;;;;;;;4.70;2.25;;;;;;;16.24;40.04;99440.94;5033121;28;20391;-74
2021/11/02 00:29:06;;;;;;;9.73;2.60;;;;;;;16.24;39.80;99446.44;5032899;28;20026;-75
2021/11/02 00:31:32;;;;;;;7.30;2.92;;;;;;;16.29;39.75;99435.09;5031590;28;20040;-74
2021/11/02 00:34:01;;;;;;;4.00;2.38;;;;;;;16.29;39.58;99437.84;5032936;28;20025;-74
2021/11/02 00:36:26;;;;;;;7.88;2.53;;;;;;;16.36;39.73;99437.88;5015190;28;20484;-74
2021/11/02 00:38:52;;;;;;;4.70;2.40;;;;;;;16.43;39.39;99437.94;5032776;28;20032;-74
2021/11/02 00:41:18;;;;;;;8.07;2.65;;;;;;;16.48;39.30;99439.56;5032776;28;20113;-74
2021/11/02 00:43:46;;;;;;;6.88;2.40;;;;;;;16.37;39.54;99439.47;5032860;28;20018;-75
2021/11/02 00:46:12;;;;;;;7.50;2.40;;;;;;;16.41;39.54;99429.28;5032815;28;20028;-78
2021/11/02 00:48:37;;;;;;;7.47;2.30;;;;;;;16.46;39.17;99428.88;5015242;28;20018;-74
2021/11/02 00:51:03;;;;;;;10.68;2.95;;;;;;;16.24;39.69;99429.91;5032757;28;20587;-74
2021/11/02 00:53:28;;;;;;;8.25;2.80;;;;;;;16.17;39.92;99419.66;5032709;28;20028;-74
2021/11/02 00:55:54;;;;;;;6.32;2.70;;;;;;;15.99;40.32;99430.50;5032642;28;20025;-74
2021/11/02 00:58:21;;;;;;;4.72;2.30;;;;;;;16.06;40.31;99427.81;5032583;28;20025;-74
2021/11/02 01:00:47;;;;;;;5.43;2.63;;;;;;;16.17;40.13;99421.59;5032437;28;20476;-77
2021/11/02 01:03:13;;;;;;;6.65;3.00;;;;;;;16.18;40.06;99425.97;5032639;28;20036;-74
2021/11/02 01:05:39;;;;;;;6.28;2.83;;;;;;;16.39;39.68;99420.56;5032127;28;20048;-74
2021/11/02 01:08:06;;;;;;;7.75;2.72;;;;;;;16.40;39.52;99422.19;5032476;28;20052;-75
2021/11/02 01:10:32;;;;;;;4.88;2.40;;;;;;;16.41;39.53;99412.72;5032458;28;20029;-74
2021/11/02 01:12:57;;;;;;;5.35;3.55;;;;;;;16.30;39.44;99433.91;5032417;28;20026;-75
2021/11/02 01:15:27;;;;;;;6.72;3.40;;;;;;;16.20;39.86;99424.38;5031553;28;20068;-74
2021/11/02 01:17:55;;;;;;;;;;;;;;;16.22;39.90;99421.25;5032861;28;20028;-74
2021/11/02 01:20:21;;;;;;;6.43;2.50;;;;;;;16.27;39.94;99429.16;5032284;28;19919;-74
2021/11/02 01:22:47;;;;;;;10.68;3.55;;;;;;;15.93;40.57;99423.78;4998371;28;20060;-74
2021/11/02 01:25:15;;;;;;;6.38;2.22;;;;;;;16.19;39.92;99428.31;5014608;28;20471;-74
2021/11/02 01:27:41;;;;;;;6.60;2.55;;;;;;;16.16;40.42;99431.81;5014572;28;20028;-74
2021/11/02 01:30:09;;;;;;;6.88;2.72;;;;;;;16.20;40.05;99426.34;5032227;28;20490;-77
2021/11/02 01:32:34;;;;;;;5.32;2.55;;;;;;;16.35;39.65;99423.31;5032210;28;20030;-74
2021/11/02 01:35:00;;;;;;;11.63;3.47;;;;;;;16.32;39.92;99428.78;5032224;28;20029;-74
2021/11/02 01:37:27;;;;;;;6.38;2.33;;;;;;;16.34;39.53;99421.75;5014576;28;20443;-74
2021/11/02 01:39:53;;;;;;;6.10;2.90;;;;;;;16.30;39.69;99418.16;5032224;28;20120;-73
2021/11/02 01:42:22;;;;;;;4.72;1.98;;;;;;;16.25;39.83;99432.31;5032199;28;20030;-77
2021/11/02 01:44:48;;;;;;;5.97;2.83;;;;;;;16.24;39.93;99429.91;5032148;28;20026;-74
2021/11/02 01:47:16;;;;;;;6.70;2.47;;;;;;;16.14;40.06;99431.44;5032058;28;20029;-74
2021/11/02 01:49:44;;;;;;;6.05;2.60;;;;;;;16.17;40.02;99435.38;5032062;28;20047;-74
2021/11/02 01:52:10;;;;;;;5.22;2.35;;;;;;;16.21;40.02;99436.19;5032057;28;20029;-74
2021/11/02 01:54:36;;;;;;;8.20;3.55;;;;;;;16.24;40.04;99429.91;5032046;28;20034;-74
2021/11/02 01:57:03;;;;;;;6.43;2.10;;;;;;;16.16;40.07;99428.28;5031953;28;20029;-74
2021/11/02 01:59:31;;;;;;;7.32;2.30;;;;;;;16.18;39.83;99436.97;5031814;28;20037;-74
2021/11/02 02:02:12;;;;;;;5.65;2.55;;;;;;;16.16;40.00;99439.31;5031983;28;20040;-75
2021/11/02 02:04:59;;;;;;;9.25;3.20;;;;;;;16.04;40.31;99441.19;5031603;28;20092;-74
2021/11/02 02:08:06;;;;;;;7.32;3.03;;;;;;;16.14;40.08;99436.16;5014179;28;20063;-74
2021/11/02 02:10:46;;;;;;;5.15;2.58;;;;;;;15.89;40.53;99433.97;4977187;28;20095;-76
2021/11/02 02:13:16;;;;;;;5.75;2.38;;;;;;;16.15;39.96;99435.75;5032196;28;20391;-74
2021/11/02 02:15:56;;;;;;;;;;;;;;;15.94;40.49;99428.09;5032282;28;20060;-74
2021/11/02 02:18:31;;;;;;;4.45;2.35;;;;;;;16.06;40.13;99430.56;5031839;28;19916;-74
2021/11/02 02:21:35;;;;;;;3.78;1.98;;;;;;;15.99;40.13;99441.53;5032133;28;20065;-77
2021/11/02 02:24:16;;;;;;;5.60;2.40;;;;;;;15.93;40.08;99431.25;4997007;28;20038;-74
2021/11/02 02:27:19;;;;;;;4.65;2.85;;;;;;;15.92;40.23;99433.22;5032250;28;20037;-74
2021/11/02 02:29:45;;;;;;;4.97;2.45;;;;;;;15.84;40.39;99437.06;4980771;28;20045;-74
2021/11/02 02:32:16;;;;;;;4.15;2.05;;;;;;;15.92;40.02;99437.94;5034707;28;20116;-74
2021/11/02 02:34:49;;;;;;;6.20;3.35;;;;;;;15.91;40.30;99434.38;5034282;28;20036;-73
2021/11/02 02:37:18;;;;;;;5.60;2.28;;;;;;;16.04;39.96;99432.94;5035426;28;20134;-74
2021/11/02 02:39:45;;;;;;;6.18;2.30;;;;;;;15.99;40.20;99430.50;5035084;28;20030;-74
2021/11/02 02:42:12;;;;;;;5.70;2.60;;;;;;;15.97;40.01;99426.56;5034902;28;20611;-74
2021/11/02 02:44:41;;;;;;;5.28;3.03;;;;;;;15.93;40.12;99426.53;5035154;28;20106;-74
2021/11/02 02:47:07;;;;;;;6.28;2.33;;;;;;;15.86;40.11;99426.47;5034972;28;20022;-74
2021/11/02 02:49:34;;;;;;;4.38;2.22;;;;;;;15.80;40.23;99425.25;5034842;28;20495;-74
2021/11/02 02:52:00;;;;;;;7.20;2.40;;;;;;;15.76;40.24;99421.66;5017115;28;20120;-74
2021/11/02 02:54:26;;;;;;;4.82;2.20;;;;;;;15.88;39.85;99426.91;5034862;28;20026;-74
2021/11/02 02:56:52;;;;;;;11.23;3.33;;;;;;;15.86;40.02;99426.47;5034777;28;20480;-74
2021/11/02 02:59:21;;;;;;;9.80;3.00;;;;;;;15.90;40.09;99426.50;5016902;28;20037;-74
2021/11/02 03:01:48;;;;;;;8.00;2.60;;;;;;;15.91;39.98;99428.09;5034620;28;20022;-74
2021/11/02 03:04:23;;;;;;;4.70;2.20;;;;;;;15.81;40.17;99430.38;5034732;28;20041;-74
2021/11/02 03:06:52;;;;;;;4.93;2.67;;;;;;;15.75;40.29;99440.16;5016285;28;20499;-74
2021/11/02 03:09:18;;;;;;;6.90;2.42;;;;;;;15.78;40.18;99431.13;5014784;28;20476;-74
2021/11/02 03:11:44;;;;;;;12.05;3.17;;;;;;;15.80;40.22;99436.25;5034450;28;20144;-74
2021/11/02 03:14:14;;;;;;;5.55;2.25;;;;;;;15.78;39.97;99433.88;5034685;28;20059;-75
2021/11/02 03:50:13;;;;;;;5.55;2.60;;;;;;;15.87;39.66;99433.56;5019087;28;20095;-74
2021/11/02 03:55:31;;;;;;;6.15;2.85;;;;;;;15.73;39.97;99425.97;5034055;28;20036;-74
2021/11/02 03:58:03;;;;;;;7.40;3.10;;;;;;;15.51;40.46;99429.66;5033706;28;20488;-74
2021/11/02 04:31:27;;;;;;;9.65;3.10;;;;;;;15.62;40.82;99438.81;5033094;28;20060;-74
2021/11/02 05:09:48;;;;;;;5.70;3.13;;;;;;;15.21;41.80;99468.25;5032827;28;20076;-74
2021/11/02 05:48:07;;;;;;;11.35;4.07;;;;;;;14.95;41.70;99496.56;5032383;28;20068;-74
2021/11/02 05:56:09;;;;;;;8.40;3.67;;;;;;;14.93;41.77;99485.16;5032141;28;20032;-74
2021/11/02 05:58:44;;;;;;;7.57;3.80;;;;;;;14.96;41.58;99490.72;5014295;28;20025;-74
2021/11/02 06:01:26;;;;;;;13.70;5.15;;;;;;;14.84;42.15;99501.16;5032021;28;20099;-73
2021/11/02 06:04:10;;;;;;;8.73;5.55;;;;;;;14.84;42.11;99492.91;5035636;28;20026;-74
2021/11/02 06:06:49;;;;;;;9.98;4.63;;;;;;;14.84;42.05;99499.19;5034109;28;20456;-74
2021/11/02 06:09:25;;;;;;;7.57;4.43;;;;;;;14.85;42.19;99495.28;5034924;28;20021;-74
2021/11/02 06:29:02;;;;;;;10.65;6.10;;;;;;;15.03;41.87;99509.25;5035695;28;20059;-74
2021/11/02 06:31:40;;;;;;;11.85;6.22;;;;;;;15.01;41.79;99508.84;5035500;28;20120;-74
2021/11/02 06:47:49;;;;;;;15.30;6.53;;;;;;;14.94;42.08;99520.53;5015546;28;20037;-76
2021/11/02 06:59:59;;;;;;;16.50;9.48;;;;;;;14.33;43.49;99545.47;4954401;29;20118;-72
2021/11/02 07:19:28;;;;;;;38.38;15.85;;;;;;;15.13;42.35;99554.59;5034445;28;20041;-73
2021/11/02 08:48:09;;;;;;;22.98;6.47;;;;;;;15.41;43.17;99622.97;5033074;28;20021;-71
2021/11/02 08:50:39;;;;;;;14.82;6.00;;;;;;;15.66;42.52;99626.91;5032824;28;20036;-72
2021/11/02 08:53:08;;;;;;;16.17;5.25;;;;;;;15.49;43.08;99625.50;5032478;28;20021;-76
2021/11/02 08:55:35;;;;;;;30.70;7.18;;;;;;;15.19;43.86;99628.22;5022109;28;20060;-73
2021/11/02 08:58:02;;;;;;;24.38;7.93;;;;;;;15.49;43.29;99624.66;5021483;28;20468;-74
2021/11/02 09:00:28;;;;;;;12.40;6.25;;;;;;;15.54;43.35;99638.13;5023017;28;20111;-72
2021/11/02 09:03:05;;;;;;;15.63;6.38;;;;;;;15.61;42.99;99648.44;5021288;28;20022;-74
2021/11/02 09:05:35;;;;;;;28.75;8.60;;;;;;;15.34;43.58;99629.22;5019259;28;20476;-73
2021/11/02 09:08:02;;;;;;;29.00;8.88;;;;;;;15.16;43.91;99648.19;5004111;28;20108;-73
2021/11/02 09:10:28;;;;;;;16.17;6.60;;;;;;;15.27;43.78;99648.38;5022548;28;20033;-72
2021/11/02 09:12:56;;;;;;;29.67;10.10;;;;;;;15.57;43.08;99647.59;5021053;28;20029;-72
2021/11/02 09:15:32;;;;;;;42.28;9.73;;;;;;;15.71;42.77;99645.06;5021074;28;20033;-73
2021/11/02 09:18:03;;;;;;;37.92;10.48;;;;;;;15.37;43.74;99649.69;5022699;28;20034;-72
2021/11/02 09:20:28;;;;;;;20.90;6.50;;;;;;;15.79;42.83;99638.47;5022409;28;20071;-73
2021/11/02 09:22:54;;;;;;;15.50;7.70;;;;;;;15.71;42.91;99639.53;5021157;28;20017;-73
2021/11/02 09:25:21;;;;;;;26.27;10.70;;;;;;;15.42;43.81;99650.16;5003597;28;20025;-72
2021/11/02 09:27:49;;;;;;;18.63;10.18;;;;;;;15.41;44.09;99656.00;5022330;28;20029;-75
2021/11/02 09:30:17;;;;;;;21.85;10.52;;;;;;;15.20;44.66;99662.03;5028276;28;20041;-72
2021/11/02 09:32:45;;;;;;;38.30;13.77;;;;;;;15.99;42.76;99652.88;5030845;28;20034;-72
2021/11/02 09:35:12;;;;;;;37.35;14.57;;;;;;;15.63;43.79;99657.94;5028410;28;20033;-76
2021/11/02 09:37:41;;;;;;;27.65;10.43;;;;;;;15.60;43.52;99663.38;5012595;28;20034;-73
2021/11/02 09:40:46;;;;;;;22.75;10.13;;;;;;;15.62;43.57;99664.59;5011559;28;20037;-71
2021/11/02 09:43:31;;;;;;;31.23;8.05;;;;;;;15.86;43.27;99660.59;4935044;29;20034;-71
2021/11/02 09:45:57;;;;;;;14.60;6.68;;;;;;;15.70;43.52;99669.03;5028074;28;20068;-72
2021/11/02 09:48:51;;;;;;;12.32;7.15;;;;;;;15.86;43.32;99671.59;5035213;28;20041;-73
2021/11/02 09:51:38;;;;;;;37.00;10.38;;;;;;;16.08;43.13;99667.94;5034936;28;20017;-76
2021/11/02 09:54:12;;;;;;;10.85;6.85;;;;;;;15.77;43.89;99671.09;5033235;28;20033;-72
2021/11/02 09:57:16;;;;;;;10.13;6.20;;;;;;;15.49;44.67;99677.78;5032447;28;20104;-74
2021/11/02 09:59:55;;;;;;;17.52;6.28;;;;;;;16.00;43.20;99674.53;5032800;28;20033;-75
2021/11/02 10:02:25;;;;;;;7.30;5.32;;;;;;;15.90;43.77;99672.47;5032634;28;20021;-76
2021/11/02 10:05:29;;;;;;;13.82;7.07;;;;;;;16.15;43.08;99681.03;5016295;28;20047;-72
2021/11/02 10:08:12;;;;;;;8.98;6.05;;;;;;;15.98;43.96;99687.13;5033357;28;20048;-72
2021/11/02 10:11:03;;;;;;;14.23;7.30;;;;;;;16.13;43.95;99680.59;5031137;28;20051;-72
2021/11/02 10:13:59;;;;;;;13.98;7.68;;;;;;;16.32;43.31;99685.13;5032266;28;20025;-73
2021/11/02 10:16:29;;;;;;;11.73;6.95;;;;;;;16.54;43.15;99681.44;5033525;28;20017;-72
2021/11/02 10:19:33;;;;;;;21.35;9.15;;;;;;;16.83;42.41;99679.78;5015480;28;20499;-74
2021/11/02 10:22:23;;;;;;;15.57;8.18;;;;;;;16.91;42.63;99686.94;5030667;28;20033;-72
2021/11/02 10:25:13;;;;;;;14.13;8.70;;;;;;;16.98;42.48;99683.47;5032077;28;20029;-72
2021/11/02 10:28:16;;;;;;;15.05;9.35;;;;;;;17.08;42.66;99681.97;5012988;28;20056;-76
2021/11/02 10:30:57;;;;;;;10.35;6.47;;;;;;;16.53;43.81;99682.63;5030923;28;20600;-72
2021/11/02 10:33:34;;;;;;;11.32;6.95;;;;;;;17.05;42.58;99689.03;5031146;28;20025;-77
2021/11/02 10:36:15;;;;;;;16.48;7.03;;;;;;;17.31;42.29;99693.59;5030589;28;20029;-72
2021/11/02 10:39:06;;;;;;;10.27;5.95;;;;;;;17.38;42.46;99690.88;5030675;28;20677;-72
2021/11/02 10:41:49;;;;;;;25.83;6.93;;;;;;;17.47;42.48;99691.34;5032041;28;20064;-72
2021/11/02 10:44:29;;;;;;;11.20;4.88;;;;;;;17.35;42.46;99685.31;5032496;28;20032;-72
2021/11/02 10:47:07;;;;;;;16.65;5.43;;;;;;;17.45;42.47;99690.09;5015451;28;20533;-75
2021/11/02 10:49:51;;;;;;;10.65;6.03;;;;;;;17.64;42.36;99698.13;5014885;28;20056;-71
2021/11/02 10:52:23;;;;;;;6.10;3.80;;;;;;;17.55;42.48;99694.94;5032658;28;20021;-71
2021/11/02 10:54:48;;;;;;;4.90;3.33;;;;;;;17.95;42.27;99690.44;5032967;28;20032;-72
2021/11/02 10:57:33;;;;;;;8.45;3.20;;;;;;;17.75;42.73;99692.69;5032647;28;20479;-74
2021/11/02 11:00:03;;;;;;;8.60;3.50;;;;;;;17.82;42.88;99697.47;5012470;28;20026;-72
2021/11/02 11:02:29;;;;;;;;;;;;;;;18.33;41.74;99686.22;5033421;28;20017;-72
2021/11/02 11:04:57;;;;;;;4.13;2.03;;;;;;;18.19;42.37;99691.72;4977960;28;1576971;-73
2021/11/02 11:07:22;;;;;;;3.15;2.15;;;;;;;18.22;41.91;99694.50;5034053;28;20430;-72
2021/11/02 11:09:54;;;;;;;7.88;2.60;;;;;;;18.45;41.88;99696.16;5033891;28;20100;-72
2021/11/02 11:12:21;;;;;;;8.48;2.80;;;;;;;18.67;41.63;99705.31;5031289;28;20026;-71
2021/11/02 11:14:51;;;;;;;6.38;2.95;;;;;;;18.89;41.23;99703.34;5033507;28;20052;-70
2021/11/02 11:17:25;;;;;;;4.28;2.50;;;;;;;18.88;41.30;99702.56;5015830;28;20021;-71
2021/11/02 11:20:04;;;;;;;4.15;3.00;;;;;;;18.68;41.49;99713.22;5033341;28;20025;-78
2021/11/02 11:22:36;;;;;;;4.75;2.17;;;;;;;18.30;42.69;99712.69;5032345;28;20096;-73
2021/11/02 11:25:20;;;;;;;6.40;2.63;;;;;;;19.09;41.40;99708.13;5031198;28;20128;-72
2021/11/02 11:27:48;;;;;;;8.75;2.70;;;;;;;18.77;42.06;99723.91;5031016;28;20434;-71
2021/11/02 11:30:16;;;;;;;13.43;2.65;;;;;;;19.35;40.98;99715.25;5033381;28;20053;-74
2021/11/02 11:32:42;;;;;;;13.38;3.60;;;;;;;19.20;41.12;99718.41;5033367;28;20128;-76
2021/11/02 11:35:09;;;;;;;2.92;2.20;;;;;;;19.15;41.44;99716.03;5033265;28;20028;-76
2021/11/02 11:37:43;;;;;;;14.13;5.32;;;;;;;19.61;40.66;99727.09;5015376;28;20063;-77
2021/11/02 11:40:11;;;;;;;4.65;2.40;;;;;;;19.74;40.58;99721.94;5033246;28;20025;-75
2021/11/02 11:42:38;;;;;;;5.65;2.60;;;;;;;20.00;40.33;99721.47;5015194;28;20028;-73
2021/11/02 11:45:17;;;;;;;5.18;2.60;;;;;;;19.94;40.54;99726.63;5015298;28;20022;-77
2021/11/02 11:47:43;;;;;;;24.50;6.32;;;;;;;19.92;41.35;99715.16;5030966;28;20395;-72
2021/11/02 11:50:28;;;;;;;14.48;5.70;;;;;;;20.06;40.90;99719.88;5032992;28;20022;-73
2021/11/02 11:53:00;;;;;;;9.27;3.33;;;;;;;20.28;40.33;99722.56;5032278;28;20021;-74
2021/11/02 11:55:33;;;;;;;3.33;1.88;;;;;;;20.21;40.19;99731.69;5031070;28;20388;-73
2021/11/02 11:58:07;;;;;;;11.52;2.70;;;;;;;20.13;39.92;99730.94;5032629;28;20017;-72
2021/11/02 12:00:36;;;;;;;7.07;2.42;;;;;;;20.18;39.56;99732.50;5031748;28;20558;-74
2021/11/02 12:03:20;;;;;;;6.50;2.73;;;;;;;20.32;39.38;99726.09;5030104;28;20037;-73
2021/11/02 12:05:56;;;;;;;4.72;2.78;;;;;;;20.44;39.18;99734.00;5030772;28;20073;-77
2021/11/02 12:08:40;;;;;;;9.13;2.80;;;;;;;19.86;40.27;99733.38;5029987;28;20526;-73
2021/11/02 12:11:06;;;;;;;7.88;2.45;;;;;;;20.43;39.32;99724.84;5030679;28;20398;-78
2021/11/02 12:13:39;;;;;;;10.93;3.53;;;;;;;20.45;39.21;99725.25;5032560;28;20136;-74
2021/11/02 12:16:10;;;;;;;7.07;2.20;;;;;;;20.64;39.29;99725.97;5030573;28;20113;-73
2021/11/02 12:18:41;;;;;;;4.82;2.33;;;;;;;20.81;38.75;99724.28;5032361;28;20029;-78
2021/11/02 12:21:15;;;;;;;5.35;2.17;;;;;;;20.68;38.92;99732.28;5032313;28;20120;-71
2021/11/02 12:23:42;;;;;;;5.65;2.00;;;;;;;21.00;38.70;99732.84;5029831;28;20036;-73
2021/11/02 12:26:09;;;;;;;3.78;2.28;;;;;;;20.55;39.43;99729.16;5032322;28;20029;-72
2021/11/02 12:28:35;;;;;;;4.55;2.08;;;;;;;20.67;38.96;99730.69;5032182;28;20025;-77
2021/11/02 12:31:07;;;;;;;8.23;2.50;;;;;;;20.55;39.10;99736.72;5032256;28;20034;-73
2021/11/02 12:33:35;;;;;;;6.93;2.00;;;;;;;20.84;38.78;99729.78;5014464;28;20038;-73
2021/11/02 12:36:04;;;;;;;6.22;2.00;;;;;;;20.39;39.46;99735.16;5011834;28;20025;-71
2021/11/02 12:38:34;;;;;;;7.38;3.15;;;;;;;20.48;39.36;99729.22;5032049;28;20379;-71
2021/11/02 12:41:01;;;;;;;4.32;1.70;;;;;;;20.17;39.82;99734.47;5029527;28;20053;-72
2021/11/02 12:43:30;;;;;;;11.43;2.50;;;;;;;20.56;38.85;99736.31;5032036;28;20375;-71
2021/11/02 12:45:59;;;;;;;12.85;3.22;;;;;;;20.09;39.96;99749.56;5031958;28;20014;-72
2021/11/02 12:48:27;;;;;;;7.22;2.75;;;;;;;20.47;38.98;99744.28;5031950;28;20472;-74
2021/11/02 12:50:54;;;;;;;7.40;3.67;;;;;;;20.31;39.49;99747.50;5031877;28;20044;-75
2021/11/02 12:53:21;;;;;;;6.50;2.40;;;;;;;20.40;39.36;99747.06;5013964;28;20028;-71
2021/11/02 12:55:47;;;;;;;6.78;2.47;;;;;;;20.18;39.76;99749.16;5031839;28;20029;-72
2021/11/02 12:58:12;;;;;;;9.45;3.03;;;;;;;20.03;40.05;99748.41;5031857;28;20079;-72
2021/11/02 13:00:59;;;;;;;11.02;2.60;;;;;;;20.05;39.75;99751.56;5031555;28;20029;-71
2021/11/02 13:03:29;;;;;;;8.40;3.33;;;;;;;20.51;38.99;99756.16;5029644;28;20078;-77
2021/11/02 13:06:02;;;;;;;;;;;;;;;20.17;39.64;99762.19;5010900;28;20527;-75
2021/11/02 13:08:46;;;;;;;7.05;3.13;;;;;;;20.40;39.29;99756.19;5011863;28;19913;-74
2021/11/02 13:11:15;;;;;;;4.68;1.98;;;;;;;20.43;39.30;99760.13;5009849;28;20069;-71
2021/11/02 13:14:01;;;;;;;6.15;1.98;;;;;;;20.46;39.29;99751.81;5008684;28;20469;-78
2021/11/02 13:16:50;;;;;;;40.00;7.63;;;;;;;20.58;39.30;99752.56;5010841;28;20018;-76
2021/11/02 13:19:16;;;;;;;4.43;1.88;;;;;;;20.69;39.12;99747.72;5010496;28;20036;-74
2021/11/02 13:21:42;;;;;;;4.18;2.28;;;;;;;20.81;39.04;99744.50;5010835;28;20053;-74
2021/11/02 13:24:21;;;;;;;7.45;2.63;;;;;;;20.62;39.35;99742.22;5011717;28;20022;-72
2021/11/02 13:26:49;;;;;;;3.22;1.70;;;;;;;20.72;39.54;99746.94;5012291;28;20072;-74
2021/11/02 13:29:16;;;;;;;6.70;2.58;;;;;;;21.12;38.83;99742.69;5011805;28;20080;-77
2021/11/02 13:31:46;;;;;;;7.68;1.73;;;;;;;21.28;38.63;99747.75;5011778;28;20038;-72
2021/11/02 13:34:15;;;;;;;;;;;;;;;21.24;38.62;99750.53;5010800;28;20033;-72
2021/11/02 13:36:41;;;;;;;6.72;2.03;;;;;;;21.43;38.41;99760.31;5008092;28;19917;-72
2021/11/02 13:39:12;;;;;;;5.07;2.38;;;;;;;21.76;37.93;99746.91;5010560;28;20018;-72
2021/11/02 13:41:46;;;;;;;4.00;1.75;;;;;;;21.76;37.84;99744.91;5010178;28;20026;-72
2021/11/02 13:44:12;;;;;;;11.35;2.50;;;;;;;21.86;37.38;99737.69;5010530;28;20026;-72
2021/11/02 13:46:55;;;;;;;5.47;1.58;;;;;;;21.89;37.59;99739.63;5010925;28;20026;-72
2021/11/02 13:49:22;;;;;;;8.35;2.40;;;;;;;21.65;38.00;99737.91;5008918;28;20676;-73
2021/11/02 13:51:52;;;;;;;9.77;2.80;;;;;;;21.79;37.85;99738.56;5011508;28;20084;-74
2021/11/02 13:54:18;;;;;;;;;;;;;;;21.37;37.83;99739.72;5012078;28;20072;-73
2021/11/02 13:56:46;;;;;;;8.95;2.05;;;;;;;21.75;37.61;99737.00;5011232;28;20371;-72
2021/11/02 13:59:13;;;;;;;5.30;2.53;;;;;;;21.97;37.00;99740.34;5009075;28;20488;-73
2021/11/02 14:01:51;;;;;;;2.45;1.00;;;;;;;22.15;36.31;99738.97;5010857;28;20113;-73
2021/11/02 14:04:38;;;;;;;16.88;3.13;;;;;;;22.12;36.20;99744.56;5012232;28;20048;-74
2021/11/02 14:07:22;;;;;;;5.30;1.75;;;;;;;22.18;36.15;99753.25;5012398;28;20423;-74
2021/11/02 14:09:55;;;;;;;5.50;2.25;;;;;;;22.27;36.41;99739.63;5029828;28;20026;-73
2021/11/02 14:12:31;;;;;;;8.00;2.80;;;;;;;22.23;36.19;99752.81;5029125;28;20029;-75
2021/11/02 14:15:11;;;;;;;11.23;2.92;;;;;;;22.13;36.13;99748.91;5029586;28;20018;-77
2021/11/02 14:17:44;;;;;;;9.13;2.00;;;;;;;22.25;36.29;99753.16;5030867;28;20021;-78
2021/11/02 14:20:29;;;;;;;13.55;3.28;;;;;;;22.26;36.27;99746.41;5031012;28;20116;-78
2021/11/02 14:22:55;;;;;;;11.07;2.95;;;;;;;22.37;36.27;99747.84;5031455;28;20387;-73
2021/11/02 14:25:21;;;;;;;21.50;3.45;;;;;;;22.40;36.43;99749.78;5034732;28;20108;-75
2021/11/02 14:27:53;;;;;;;8.65;1.92;;;;;;;22.05;36.60;99747.41;5034584;28;20036;-73
2021/11/02 14:30:31;;;;;;;6.75;2.00;;;;;;;22.04;36.71;99754.97;5034448;28;20021;-72
2021/11/02 14:32:57;;;;;;;17.33;3.65;;;;;;;22.29;36.61;99737.19;5034490;28;20087;-78
2021/11/02 14:35:46;;;;;;;11.52;3.45;;;;;;;21.89;36.74;99750.75;5034741;28;20130;-73
2021/11/02 14:38:17;;;;;;;5.82;2.38;;;;;;;22.05;36.45;99750.97;5033464;28;20518;-73
2021/11/02 14:40:55;;;;;;;9.07;2.45;;;;;;;22.01;36.42;99755.78;5031845;28;20056;-75
2021/11/02 14:43:24;;;;;;;12.07;2.97;;;;;;;21.93;36.46;99750.72;5031497;28;20022;-72
2021/11/02 14:45:54;;;;;;;5.30;2.33;;;;;;;21.87;36.22;99748.38;5034490;28;20403;-72
2021/11/02 14:48:26;;;;;;;13.85;3.33;;;;;;;21.81;36.71;99749.25;5016735;28;20615;-72
2021/11/02 14:50:57;;;;;;;7.93;2.53;;;;;;;21.72;36.94;99746.16;5034205;28;20045;-77
2021/11/02 14:53:27;;;;;;;7.95;2.05;;;;;;;21.88;36.73;99751.97;5031519;28;20625;-72
2021/11/02 14:55:58;;;;;;;6.03;1.77;;;;;;;21.85;36.54;99748.03;5034078;28;20030;-72
2021/11/02 14:58:38;;;;;;;8.13;1.60;;;;;;;21.87;36.23;99742.03;5031680;28;20028;-77
2021/11/02 15:01:09;;;;;;;5.18;1.42;;;;;;;22.01;35.82;99750.22;5031408;28;20021;-73
2021/11/02 15:03:35;;;;;;;3.70;1.10;;;;;;;22.01;35.64;99755.78;5033944;28;20021;-72
2021/11/02 15:06:12;;;;;;;5.90;1.58;;;;;;;21.81;35.67;99754.81;5015952;28;20037;-72
2021/11/02 15:08:41;;;;;;;16.05;3.63;;;;;;;21.94;35.44;99761.44;5033854;28;20028;-77
2021/11/02 15:11:18;;;;;;;9.27;2.08;;;;;;;22.01;34.97;99764.13;5033884;28;20021;-77
2021/11/02 15:13:52;;;;;;;10.55;6.22;;;;;;;21.88;34.74;99761.09;5031250;28;20028;-72
2021/11/02 15:16:19;;;;;;;8.15;2.38;;;;;;;22.02;34.79;99765.72;5033723;28;20033;-77
2021/11/02 15:19:01;;;;;;;8.93;1.92;;;;;;;22.05;34.72;99770.44;5034072;28;20427;-73
2021/11/02 15:21:45;;;;;;;138.43;88.03;;;;;;;22.13;34.38;99768.41;5031684;28;20468;-73
2021/11/02 15:24:27;;;;;;;14.10;3.47;;;;;;;22.19;34.35;99766.75;5032168;28;20581;-72
2021/11/02 15:27:01;;;;;;;9.85;3.40;;;;;;;22.21;34.49;99777.44;5032373;28;20034;-72
2021/11/02 15:29:36;;;;;;;7.30;4.18;;;;;;;22.09;34.53;99778.78;5031456;28;20043;-73
2021/11/02 15:32:08;;;;;;;39.13;34.05;;;;;;;22.08;34.86;99775.22;5034150;28;20049;-74
2021/11/02 15:34:42;;;;;;;36.13;31.23;;;;;;;22.01;34.82;99777.25;5027212;28;20032;-72
2021/11/02 15:37:26;;;;;;;407.83;363.08;;;;;;;22.03;34.86;99780.41;5016266;28;20032;-71
2021/11/02 15:40:12;;;;;;;20.20;11.63;;;;;;;21.95;34.93;99773.34;4996867;28;20078;-72
2021/11/02 15:42:39;;;;;;;58.42;48.38;;;;;;;21.85;35.06;99772.25;5021175;28;20061;-77
2021/11/02 15:45:10;;;;;;;14.88;9.25;;;;;;;21.89;34.82;99784.13;5023985;28;20041;-73
2021/11/02 15:47:46;;;;;;;5.47;2.47;;;;;;;21.75;35.25;99784.25;4996416;28;20057;-75
2021/11/02 15:50:15;;;;;;;5.07;2.40;;;;;;;21.69;34.96;99788.69;5014162;28;20033;-73
2021/11/02 15:52:41;;;;;;;2.40;1.17;;;;;;;21.31;35.61;99794.16;5014224;28;20030;-72
2021/11/02 15:55:14;;;;;;;6.18;1.52;;;;;;;21.41;35.06;99796.09;5014419;28;20156;-76
2021/11/02 15:57:43;;;;;;;5.32;1.40;;;;;;;21.47;34.92;99799.22;5012648;28;20026;-73
2021/11/02 16:00:12;;;;;;;4.43;1.45;;;;;;;21.40;34.96;99804.84;5013069;28;20033;-73
2021/11/02 16:02:45;;;;;;;5.73;1.73;;;;;;;21.34;34.99;99804.47;5014526;28;20553;-75
2021/11/02 16:05:12;;;;;;;6.43;2.22;;;;;;;21.30;34.79;99804.47;5013520;28;20049;-77
2021/11/02 16:07:38;;;;;;;6.70;2.30;;;;;;;21.19;35.22;99808.53;5013941;28;20103;-74
2021/11/02 16:10:06;;;;;;;5.65;1.70;;;;;;;21.13;35.34;99807.38;5013884;28;20061;-74
2021/11/02 16:12:38;;;;;;;11.10;5.43;;;;;;;21.17;35.33;99811.72;5013855;28;20272;-80
2021/11/02 16:15:06;;;;;;;15.23;5.25;;;;;;;21.15;35.47;99824.41;4996215;28;20113;-73
2021/11/02 16:17:46;;;;;;;13.93;1.95;;;;;;;21.00;35.71;99821.72;5013684;28;20434;-74
2021/11/02 16:20:15;;;;;;;;;;;;;;;21.02;35.74;99813.00;5014212;28;20163;-74
2021/11/02 16:22:57;;;;;;;9.40;3.22;;;;;;;21.09;35.71;99828.84;5013648;28;20004;-74
2021/11/02 16:25:24;;;;;;;4.97;1.00;;;;;;;20.95;35.98;99824.16;5013701;28;20026;-74
2021/11/02 16:27:56;;;;;;;11.88;2.28;;;;;;;20.96;35.89;99823.72;5013388;28;20099;-74
2021/11/02 16:30:26;;;;;;;5.00;2.03;;;;;;;20.85;36.15;99834.09;5013843;28;20052;-77
2021/11/02 16:32:54;;;;;;;7.40;1.40;;;;;;;20.81;36.20;99836.13;5013470;28;20077;-74
2021/11/02 16:35:47;;;;;;;13.98;4.88;;;;;;;20.77;36.24;99840.88;4995959;28;20022;-81
2021/11/02 16:38:25;;;;;;;6.60;1.13;;;;;;;20.77;36.24;99838.88;5025056;28;20072;-74
2021/11/02 16:41:03;;;;;;;6.53;1.17;;;;;;;20.50;36.88;99838.63;5027194;28;20112;-73
2021/11/02 16:43:36;;;;;;;9.57;1.83;;;;;;;20.52;36.76;99832.66;5014277;28;20052;-74
2021/11/02 16:46:04;;;;;;;14.98;2.17;;;;;;;20.49;36.94;99841.81;5032145;28;20438;-72